sensor_id;sensor_type;location;lat;lon;timestamp;P1;durP1;ratioP1;P2;durP2;ratioP2
9559;SDS011;4818;50.860;4.648;2022-09-27T00:02:09;7.55;;;0.30;;
9559;SDS011;4818;50.860;4.648;2022-09-27T00:04:35;7.43;;;0.32;;
9559;SDS011;4818;50.860;4.648;2022-09-27T00:07:01;5.80;;;0.40;;
9559;SDS011;4818;50.860;4.648;2022-09-27T00:09:28;5.20;;;0.57;;
9559;SDS011;4818;50.860;4.648;2022-09-27T00:11:54;2.33;;;0.20;;
9559;SDS011;4818;50.860;4.648;2022-09-27T00:14:20;3.33;;;0.30;;
9559;SDS011;4818;50.860;4.648;2022-09-27T00:16:46;4.50;;;0.40;;
9559;SDS011;4818;50.860;4.648;2022-09-27T00:19:17;1.70;;;0.17;;
9559;SDS011;4818;50.860;4.648;2022-09-27T00:21:44;4.78;;;0.38;;
9559;SDS011;4818;50.860;4.648;2022-09-27T00:24:11;3.75;;;0.50;;
9559;SDS011;4818;50.860;4.648;2022-09-27T00:26:37;7.35;;;0.77;;
9559;SDS011;4818;50.860;4.648;2022-09-27T00:29:04;4.53;;;0.47;;
9559;SDS011;4818;50.860;4.648;2022-09-27T00:31:30;4.80;;;0.65;;
9559;SDS011;4818;50.860;4.648;2022-09-27T00:33:57;11.30;;;1.30;;
9559;SDS011;4818;50.860;4.648;2022-09-27T00:36:24;6.38;;;1.20;;
9559;SDS011;4818;50.860;4.648;2022-09-27T00:38:50;5.97;;;1.48;;
9559;SDS011;4818;50.860;4.648;2022-09-27T00:41:21;6.22;;;1.00;;
9559;SDS011;4818;50.860;4.648;2022-09-27T00:43:49;4.32;;;0.82;;
9559;SDS011;4818;50.860;4.648;2022-09-27T00:48:59;7.35;;;0.68;;
9559;SDS011;4818;50.860;4.648;2022-09-27T00:51:27;3.55;;;0.40;;
9559;SDS011;4818;50.860;4.648;2022-09-27T00:53:53;5.25;;;0.73;;
9559;SDS011;4818;50.860;4.648;2022-09-27T00:56:21;4.78;;;0.50;;
9559;SDS011;4818;50.860;4.648;2022-09-27T00:58:51;4.32;;;0.47;;
9559;SDS011;4818;50.860;4.648;2022-09-27T01:01:20;3.63;;;0.40;;
9559;SDS011;4818;50.860;4.648;2022-09-27T01:03:55;2.88;;;0.50;;
9559;SDS011;4818;50.860;4.648;2022-09-27T01:06:22;4.80;;;0.50;;
9559;SDS011;4818;50.860;4.648;2022-09-27T01:08:48;2.95;;;0.50;;
9559;SDS011;4818;50.860;4.648;2022-09-27T01:21:42;9.02;;;0.68;;
9559;SDS011;4818;50.860;4.648;2022-09-27T01:24:13;3.97;;;0.35;;
9559;SDS011;4818;50.860;4.648;2022-09-27T01:31:51;2.13;;;0.20;;
9559;SDS011;4818;50.860;4.648;2022-09-27T01:34:26;4.18;;;0.20;;
9559;SDS011;4818;50.860;4.648;2022-09-27T01:47:21;2.72;;;0.10;;
9559;SDS011;4818;50.860;4.648;2022-09-27T01:49:52;3.13;;;0.20;;
9559;SDS011;4818;50.860;4.648;2022-09-27T01:52:21;0.85;;;0.17;;
9559;SDS011;4818;50.860;4.648;2022-09-27T01:54:51;4.32;;;0.50;;
9559;SDS011;4818;50.860;4.648;2022-09-27T01:57:20;4.28;;;0.20;;
9559;SDS011;4818;50.860;4.648;2022-09-27T01:59:52;5.53;;;0.20;;
9559;SDS011;4818;50.860;4.648;2022-09-27T02:02:21;5.93;;;0.30;;
9559;SDS011;4818;50.860;4.648;2022-09-27T02:04:49;1.35;;;0.20;;
9559;SDS011;4818;50.860;4.648;2022-09-27T02:07:18;4.57;;;0.10;;
9559;SDS011;4818;50.860;4.648;2022-09-27T02:09:56;2.35;;;0.20;;
9559;SDS011;4818;50.860;4.648;2022-09-27T02:12:25;5.85;;;0.38;;
9559;SDS011;4818;50.860;4.648;2022-09-27T02:14:56;4.07;;;0.20;;
9559;SDS011;4818;50.860;4.648;2022-09-27T02:17:29;4.43;;;0.20;;
9559;SDS011;4818;50.860;4.648;2022-09-27T02:22:43;2.70;;;0.30;;
9559;SDS011;4818;50.860;4.648;2022-09-27T02:25:17;3.47;;;0.52;;
9559;SDS011;4818;50.860;4.648;2022-09-27T02:30:12;3.40;;;0.30;;
9559;SDS011;4818;50.860;4.648;2022-09-27T02:32:40;2.30;;;0.60;;
9559;SDS011;4818;50.860;4.648;2022-09-27T02:35:13;3.80;;;0.63;;
9559;SDS011;4818;50.860;4.648;2022-09-27T02:37:41;6.95;;;0.45;;
9559;SDS011;4818;50.860;4.648;2022-09-27T02:40:07;6.93;;;0.77;;
9559;SDS011;4818;50.860;4.648;2022-09-27T02:42:34;3.47;;;0.20;;
9559;SDS011;4818;50.860;4.648;2022-09-27T02:45:01;2.85;;;0.20;;
9559;SDS011;4818;50.860;4.648;2022-09-27T02:52:37;2.42;;;0.13;;
9559;SDS011;4818;50.860;4.648;2022-09-27T02:55:26;1.65;;;0.40;;
9559;SDS011;4818;50.860;4.648;2022-09-27T03:03:07;1.75;;;0.15;;
9559;SDS011;4818;50.860;4.648;2022-09-27T03:05:42;2.50;;;0.15;;
9559;SDS011;4818;50.860;4.648;2022-09-27T03:08:09;2.45;;;0.30;;
9559;SDS011;4818;50.860;4.648;2022-09-27T03:10:36;2.42;;;0.30;;
9559;SDS011;4818;50.860;4.648;2022-09-27T03:13:02;2.97;;;0.10;;
9559;SDS011;4818;50.860;4.648;2022-09-27T03:15:29;1.48;;;0.25;;
9559;SDS011;4818;50.860;4.648;2022-09-27T03:17:56;3.03;;;0.28;;
9559;SDS011;4818;50.860;4.648;2022-09-27T03:20:22;3.45;;;0.30;;
9559;SDS011;4818;50.860;4.648;2022-09-27T03:22:48;3.60;;;0.20;;
9559;SDS011;4818;50.860;4.648;2022-09-27T03:25:14;1.05;;;0.10;;
9559;SDS011;4818;50.860;4.648;2022-09-27T03:27:42;4.97;;;0.20;;
9559;SDS011;4818;50.860;4.648;2022-09-27T03:30:09;4.15;;;0.10;;
9559;SDS011;4818;50.860;4.648;2022-09-27T03:32:36;1.80;;;0.05;;
9559;SDS011;4818;50.860;4.648;2022-09-27T03:35:02;2.60;;;0.10;;
9559;SDS011;4818;50.860;4.648;2022-09-27T03:37:28;1.67;;;0.20;;
9559;SDS011;4818;50.860;4.648;2022-09-27T03:39:55;3.55;;;0.22;;
9559;SDS011;4818;50.860;4.648;2022-09-27T03:42:21;4.07;;;0.10;;
9559;SDS011;4818;50.860;4.648;2022-09-27T03:44:47;2.10;;;0.03;;
9559;SDS011;4818;50.860;4.648;2022-09-27T03:47:15;8.35;;;0.45;;
9559;SDS011;4818;50.860;4.648;2022-09-27T03:49:41;4.03;;;0.20;;
9559;SDS011;4818;50.860;4.648;2022-09-27T03:52:07;2.75;;;0.40;;
9559;SDS011;4818;50.860;4.648;2022-09-27T03:54:34;3.42;;;0.20;;
9559;SDS011;4818;50.860;4.648;2022-09-27T03:57:00;3.42;;;0.20;;
9559;SDS011;4818;50.860;4.648;2022-09-27T03:59:26;3.65;;;0.45;;
9559;SDS011;4818;50.860;4.648;2022-09-27T04:01:52;2.20;;;0.22;;
9559;SDS011;4818;50.860;4.648;2022-09-27T04:04:20;10.60;;;0.60;;
9559;SDS011;4818;50.860;4.648;2022-09-27T04:06:46;3.17;;;0.30;;
9559;SDS011;4818;50.860;4.648;2022-09-27T04:09:13;2.13;;;0.25;;
9559;SDS011;4818;50.860;4.648;2022-09-27T04:11:39;2.80;;;0.40;;
9559;SDS011;4818;50.860;4.648;2022-09-27T04:14:05;2.15;;;0.20;;
9559;SDS011;4818;50.860;4.648;2022-09-27T04:16:33;3.33;;;0.38;;
9559;SDS011;4818;50.860;4.648;2022-09-27T04:18:59;4.22;;;0.20;;
9559;SDS011;4818;50.860;4.648;2022-09-27T04:21:26;2.95;;;0.25;;
9559;SDS011;4818;50.860;4.648;2022-09-27T04:23:52;2.60;;;0.22;;
9559;SDS011;4818;50.860;4.648;2022-09-27T04:26:18;2.03;;;0.63;;
9559;SDS011;4818;50.860;4.648;2022-09-27T04:28:45;3.33;;;1.02;;
9559;SDS011;4818;50.860;4.648;2022-09-27T04:31:11;4.00;;;0.50;;
9559;SDS011;4818;50.860;4.648;2022-09-27T04:33:37;1.08;;;0.25;;
9559;SDS011;4818;50.860;4.648;2022-09-27T04:36:04;3.13;;;0.65;;
9559;SDS011;4818;50.860;4.648;2022-09-27T04:38:49;8.30;;;0.60;;
9559;SDS011;4818;50.860;4.648;2022-09-27T04:41:15;2.90;;;0.65;;
9559;SDS011;4818;50.860;4.648;2022-09-27T04:43:41;7.65;;;1.05;;
9559;SDS011;4818;50.860;4.648;2022-09-27T04:46:07;6.05;;;0.30;;
9559;SDS011;4818;50.860;4.648;2022-09-27T04:48:34;2.33;;;0.40;;
9559;SDS011;4818;50.860;4.648;2022-09-27T04:51:01;2.95;;;0.30;;
9559;SDS011;4818;50.860;4.648;2022-09-27T04:53:28;6.80;;;0.63;;
9559;SDS011;4818;50.860;4.648;2022-09-27T04:55:54;1.90;;;0.30;;
9559;SDS011;4818;50.860;4.648;2022-09-27T04:58:21;0.70;;;0.28;;
9559;SDS011;4818;50.860;4.648;2022-09-27T05:00:47;10.38;;;0.32;;
9559;SDS011;4818;50.860;4.648;2022-09-27T05:03:16;1.75;;;0.30;;
9559;SDS011;4818;50.860;4.648;2022-09-27T05:05:43;3.22;;;0.30;;
9559;SDS011;4818;50.860;4.648;2022-09-27T05:08:10;2.15;;;0.40;;
9559;SDS011;4818;50.860;4.648;2022-09-27T05:10:36;2.55;;;0.40;;
9559;SDS011;4818;50.860;4.648;2022-09-27T05:13:02;1.63;;;0.30;;
9559;SDS011;4818;50.860;4.648;2022-09-27T05:15:28;6.43;;;0.40;;
9559;SDS011;4818;50.860;4.648;2022-09-27T05:17:54;6.63;;;0.40;;
9559;SDS011;4818;50.860;4.648;2022-09-27T05:20:22;2.65;;;0.55;;
9559;SDS011;4818;50.860;4.648;2022-09-27T05:22:50;1.70;;;0.50;;
9559;SDS011;4818;50.860;4.648;2022-09-27T05:25:16;3.15;;;0.50;;
9559;SDS011;4818;50.860;4.648;2022-09-27T05:27:43;2.38;;;0.60;;
9559;SDS011;4818;50.860;4.648;2022-09-27T05:30:09;5.40;;;0.63;;
9559;SDS011;4818;50.860;4.648;2022-09-27T05:32:38;1.25;;;0.40;;
9559;SDS011;4818;50.860;4.648;2022-09-27T05:35:05;2.85;;;0.88;;
9559;SDS011;4818;50.860;4.648;2022-09-27T05:37:32;4.43;;;1.60;;
9559;SDS011;4818;50.860;4.648;2022-09-27T05:39:58;7.97;;;1.52;;
9559;SDS011;4818;50.860;4.648;2022-09-27T05:42:24;6.30;;;1.88;;
9559;SDS011;4818;50.860;4.648;2022-09-27T05:44:50;3.63;;;1.55;;
9559;SDS011;4818;50.860;4.648;2022-09-27T05:47:17;3.60;;;1.20;;
9559;SDS011;4818;50.860;4.648;2022-09-27T05:49:43;5.47;;;1.80;;
9559;SDS011;4818;50.860;4.648;2022-09-27T05:52:10;4.60;;;1.33;;
9559;SDS011;4818;50.860;4.648;2022-09-27T05:54:41;5.30;;;1.75;;
9559;SDS011;4818;50.860;4.648;2022-09-27T05:57:07;4.63;;;1.52;;
9559;SDS011;4818;50.860;4.648;2022-09-27T05:59:34;4.03;;;1.98;;
9559;SDS011;4818;50.860;4.648;2022-09-27T06:02:00;3.67;;;1.55;;
9559;SDS011;4818;50.860;4.648;2022-09-27T06:04:32;3.50;;;1.70;;
9559;SDS011;4818;50.860;4.648;2022-09-27T06:06:59;8.00;;;1.90;;
9559;SDS011;4818;50.860;4.648;2022-09-27T06:09:25;8.80;;;2.05;;
9559;SDS011;4818;50.860;4.648;2022-09-27T06:11:52;5.35;;;1.63;;
9559;SDS011;4818;50.860;4.648;2022-09-27T06:14:18;3.22;;;2.03;;
9559;SDS011;4818;50.860;4.648;2022-09-27T06:16:45;6.57;;;2.10;;
9559;SDS011;4818;50.860;4.648;2022-09-27T06:19:11;10.65;;;2.08;;
9559;SDS011;4818;50.860;4.648;2022-09-27T06:21:39;9.50;;;2.63;;
9559;SDS011;4818;50.860;4.648;2022-09-27T06:24:11;2.92;;;1.50;;
9559;SDS011;4818;50.860;4.648;2022-09-27T06:26:37;5.07;;;2.30;;
9559;SDS011;4818;50.860;4.648;2022-09-27T06:29:06;8.38;;;2.25;;
9559;SDS011;4818;50.860;4.648;2022-09-27T06:31:33;9.02;;;2.53;;
9559;SDS011;4818;50.860;4.648;2022-09-27T06:33:59;8.20;;;1.70;;
9559;SDS011;4818;50.860;4.648;2022-09-27T06:36:25;18.02;;;2.95;;
9559;SDS011;4818;50.860;4.648;2022-09-27T06:38:52;6.28;;;1.80;;
9559;SDS011;4818;50.860;4.648;2022-09-27T06:41:18;8.80;;;1.40;;
9559;SDS011;4818;50.860;4.648;2022-09-27T06:43:46;3.55;;;1.45;;
9559;SDS011;4818;50.860;4.648;2022-09-27T06:46:13;3.85;;;1.27;;
9559;SDS011;4818;50.860;4.648;2022-09-27T06:48:39;5.40;;;1.42;;
9559;SDS011;4818;50.860;4.648;2022-09-27T06:51:06;3.28;;;1.15;;
9559;SDS011;4818;50.860;4.648;2022-09-27T06:53:32;3.90;;;1.40;;
9559;SDS011;4818;50.860;4.648;2022-09-27T06:55:59;2.65;;;1.45;;
9559;SDS011;4818;50.860;4.648;2022-09-27T06:58:26;6.80;;;1.80;;
9559;SDS011;4818;50.860;4.648;2022-09-27T07:01:13;4.57;;;2.13;;
9559;SDS011;4818;50.860;4.648;2022-09-27T07:03:39;4.43;;;1.50;;
9559;SDS011;4818;50.860;4.648;2022-09-27T07:06:11;3.45;;;1.17;;
9559;SDS011;4818;50.860;4.648;2022-09-27T07:08:39;5.35;;;1.05;;
9559;SDS011;4818;50.860;4.648;2022-09-27T07:11:06;1.67;;;0.90;;
9559;SDS011;4818;50.860;4.648;2022-09-27T07:13:32;1.90;;;0.95;;
9559;SDS011;4818;50.860;4.648;2022-09-27T07:16:04;2.38;;;0.90;;
9559;SDS011;4818;50.860;4.648;2022-09-27T07:18:30;2.25;;;1.15;;
9559;SDS011;4818;50.860;4.648;2022-09-27T07:20:58;5.43;;;1.30;;
9559;SDS011;4818;50.860;4.648;2022-09-27T07:23:24;3.60;;;1.17;;
9559;SDS011;4818;50.860;4.648;2022-09-27T07:25:51;7.35;;;1.67;;
9559;SDS011;4818;50.860;4.648;2022-09-27T07:28:17;3.30;;;1.30;;
9559;SDS011;4818;50.860;4.648;2022-09-27T07:30:44;5.13;;;1.30;;
9559;SDS011;4818;50.860;4.648;2022-09-27T07:33:14;2.17;;;1.42;;
9559;SDS011;4818;50.860;4.648;2022-09-27T07:35:40;4.90;;;1.38;;
9559;SDS011;4818;50.860;4.648;2022-09-27T07:38:08;5.03;;;1.65;;
9559;SDS011;4818;50.860;4.648;2022-09-27T07:40:37;3.85;;;0.60;;
9559;SDS011;4818;50.860;4.648;2022-09-27T07:43:03;4.25;;;1.25;;
9559;SDS011;4818;50.860;4.648;2022-09-27T07:45:32;3.33;;;0.70;;
9559;SDS011;4818;50.860;4.648;2022-09-27T07:47:59;3.08;;;0.60;;
9559;SDS011;4818;50.860;4.648;2022-09-27T07:53:44;4.47;;;0.63;;
9559;SDS011;4818;50.860;4.648;2022-09-27T07:56:10;1.45;;;0.47;;
9559;SDS011;4818;50.860;4.648;2022-09-27T07:58:37;2.65;;;0.60;;
9559;SDS011;4818;50.860;4.648;2022-09-27T08:01:04;1.48;;;0.63;;
9559;SDS011;4818;50.860;4.648;2022-09-27T08:03:31;2.85;;;0.40;;
9559;SDS011;4818;50.860;4.648;2022-09-27T08:06:00;2.15;;;0.60;;
9559;SDS011;4818;50.860;4.648;2022-09-27T08:08:27;1.83;;;0.65;;
9559;SDS011;4818;50.860;4.648;2022-09-27T08:10:53;2.50;;;0.57;;
9559;SDS011;4818;50.860;4.648;2022-09-27T08:13:19;3.13;;;0.90;;
9559;SDS011;4818;50.860;4.648;2022-09-27T08:15:46;2.17;;;0.50;;
9559;SDS011;4818;50.860;4.648;2022-09-27T08:18:12;3.60;;;0.50;;
9559;SDS011;4818;50.860;4.648;2022-09-27T08:20:39;5.07;;;0.70;;
9559;SDS011;4818;50.860;4.648;2022-09-27T08:23:05;6.20;;;0.70;;
9559;SDS011;4818;50.860;4.648;2022-09-27T08:25:31;2.72;;;0.50;;
9559;SDS011;4818;50.860;4.648;2022-09-27T08:27:58;1.98;;;0.50;;
9559;SDS011;4818;50.860;4.648;2022-09-27T08:30:25;4.03;;;0.70;;
9559;SDS011;4818;50.860;4.648;2022-09-27T08:32:59;1.73;;;0.63;;
9559;SDS011;4818;50.860;4.648;2022-09-27T08:35:30;4.43;;;0.80;;
9559;SDS011;4818;50.860;4.648;2022-09-27T08:37:58;2.15;;;0.55;;
9559;SDS011;4818;50.860;4.648;2022-09-27T08:48:32;2.25;;;0.77;;
9559;SDS011;4818;50.860;4.648;2022-09-27T08:50:59;3.03;;;0.45;;
9559;SDS011;4818;50.860;4.648;2022-09-27T08:55:59;2.40;;;0.60;;
9559;SDS011;4818;50.860;4.648;2022-09-27T08:58:29;1.75;;;0.50;;
9559;SDS011;4818;50.860;4.648;2022-09-27T09:00:58;3.80;;;1.10;;
9559;SDS011;4818;50.860;4.648;2022-09-27T09:03:30;2.28;;;0.60;;
9559;SDS011;4818;50.860;4.648;2022-09-27T09:08:46;1.73;;;0.70;;
9559;SDS011;4818;50.860;4.648;2022-09-27T09:22:15;1.77;;;0.40;;
9559;SDS011;4818;50.860;4.648;2022-09-27T09:27:41;2.88;;;0.73;;
9559;SDS011;4818;50.860;4.648;2022-09-27T09:30:21;2.30;;;0.50;;
9559;SDS011;4818;50.860;4.648;2022-09-27T09:35:42;5.03;;;0.40;;
9559;SDS011;4818;50.860;4.648;2022-09-27T09:38:11;3.42;;;0.30;;
9559;SDS011;4818;50.860;4.648;2022-09-27T09:40:39;1.85;;;0.43;;
9559;SDS011;4818;50.860;4.648;2022-09-27T09:45:38;5.13;;;0.40;;
9559;SDS011;4818;50.860;4.648;2022-09-27T09:48:56;1.13;;;0.30;;
9559;SDS011;4818;50.860;4.648;2022-09-27T09:50:56;2.92;;;0.30;;
9559;SDS011;4818;50.860;4.648;2022-09-27T09:56:08;2.10;;;0.40;;
9559;SDS011;4818;50.860;4.648;2022-09-27T09:58:45;1.67;;;0.30;;
9559;SDS011;4818;50.860;4.648;2022-09-27T10:01:20;1.67;;;0.20;;
9559;SDS011;4818;50.860;4.648;2022-09-27T10:03:48;3.80;;;0.80;;
9559;SDS011;4818;50.860;4.648;2022-09-27T10:06:14;5.90;;;0.30;;
9559;SDS011;4818;50.860;4.648;2022-09-27T10:08:41;4.65;;;0.30;;
9559;SDS011;4818;50.860;4.648;2022-09-27T10:11:11;2.15;;;0.35;;
9559;SDS011;4818;50.860;4.648;2022-09-27T10:13:42;16.15;;;0.50;;
9559;SDS011;4818;50.860;4.648;2022-09-27T10:16:09;5.25;;;0.80;;
9559;SDS011;4818;50.860;4.648;2022-09-27T10:18:36;2.15;;;0.30;;
9559;SDS011;4818;50.860;4.648;2022-09-27T10:21:05;2.63;;;0.47;;
9559;SDS011;4818;50.860;4.648;2022-09-27T10:23:32;2.65;;;0.30;;
9559;SDS011;4818;50.860;4.648;2022-09-27T10:26:02;3.85;;;0.50;;
9559;SDS011;4818;50.860;4.648;2022-09-27T10:28:39;4.68;;;0.52;;
9559;SDS011;4818;50.860;4.648;2022-09-27T10:31:13;4.22;;;0.40;;
9559;SDS011;4818;50.860;4.648;2022-09-27T10:33:58;4.22;;;0.28;;
9559;SDS011;4818;50.860;4.648;2022-09-27T10:36:29;6.55;;;0.40;;
9559;SDS011;4818;50.860;4.648;2022-09-27T10:38:57;4.80;;;0.40;;
9559;SDS011;4818;50.860;4.648;2022-09-27T10:41:38;5.45;;;1.05;;
9559;SDS011;4818;50.860;4.648;2022-09-27T10:46:47;4.07;;;0.45;;
9559;SDS011;4818;50.860;4.648;2022-09-27T10:51:44;4.40;;;0.60;;
9559;SDS011;4818;50.860;4.648;2022-09-27T10:54:17;6.90;;;0.93;;
9559;SDS011;4818;50.860;4.648;2022-09-27T10:56:44;3.45;;;0.77;;
9559;SDS011;4818;50.860;4.648;2022-09-27T10:59:21;1.35;;;0.50;;
9559;SDS011;4818;50.860;4.648;2022-09-27T11:01:49;6.32;;;0.50;;
9559;SDS011;4818;50.860;4.648;2022-09-27T11:04:22;3.03;;;0.45;;
9559;SDS011;4818;50.860;4.648;2022-09-27T11:06:49;4.43;;;0.40;;
9559;SDS011;4818;50.860;4.648;2022-09-27T11:09:20;7.25;;;0.63;;
9559;SDS011;4818;50.860;4.648;2022-09-27T11:12:09;6.72;;;0.57;;
9559;SDS011;4818;50.860;4.648;2022-09-27T11:14:37;14.00;;;1.33;;
9559;SDS011;4818;50.860;4.648;2022-09-27T11:17:12;4.90;;;0.50;;
9559;SDS011;4818;50.860;4.648;2022-09-27T11:30:53;3.38;;;0.40;;
9559;SDS011;4818;50.860;4.648;2022-09-27T11:35:53;5.18;;;0.50;;
9559;SDS011;4818;50.860;4.648;2022-09-27T11:38:25;5.25;;;0.60;;
9559;SDS011;4818;50.860;4.648;2022-09-27T11:56:30;2.42;;;0.50;;
9559;SDS011;4818;50.860;4.648;2022-09-27T12:01:31;1.15;;;0.10;;
9559;SDS011;4818;50.860;4.648;2022-09-27T12:06:33;2.47;;;0.30;;
9559;SDS011;4818;50.860;4.648;2022-09-27T12:09:04;1.98;;;0.20;;
9559;SDS011;4818;50.860;4.648;2022-09-27T12:13:58;3.53;;;0.10;;
9559;SDS011;4818;50.860;4.648;2022-09-27T12:16:26;2.67;;;0.20;;
9559;SDS011;4818;50.860;4.648;2022-09-27T12:18:53;3.15;;;0.20;;
9559;SDS011;4818;50.860;4.648;2022-09-27T12:21:20;2.78;;;0.28;;
9559;SDS011;4818;50.860;4.648;2022-09-27T12:23:48;1.38;;;0.10;;
9559;SDS011;4818;50.860;4.648;2022-09-27T12:26:26;2.80;;;0.20;;
9559;SDS011;4818;50.860;4.648;2022-09-27T12:28:58;3.10;;;0.43;;
9559;SDS011;4818;50.860;4.648;2022-09-27T12:31:28;2.00;;;0.35;;
9559;SDS011;4818;50.860;4.648;2022-09-27T12:34:13;2.25;;;0.20;;
9559;SDS011;4818;50.860;4.648;2022-09-27T12:36:42;2.50;;;0.20;;
9559;SDS011;4818;50.860;4.648;2022-09-27T12:41:37;1.80;;;0.20;;
9559;SDS011;4818;50.860;4.648;2022-09-27T12:44:04;3.95;;;0.20;;
9559;SDS011;4818;50.860;4.648;2022-09-27T12:46:35;6.38;;;0.25;;
9559;SDS011;4818;50.860;4.648;2022-09-27T12:51:58;5.50;;;0.40;;
9559;SDS011;4818;50.860;4.648;2022-09-27T12:57:02;7.25;;;0.25;;
9559;SDS011;4818;50.860;4.648;2022-09-27T13:07:25;3.55;;;0.55;;
9559;SDS011;4818;50.860;4.648;2022-09-27T13:12:39;3.85;;;0.35;;
9559;SDS011;4818;50.860;4.648;2022-09-27T13:15:12;2.63;;;0.30;;
9559;SDS011;4818;50.860;4.648;2022-09-27T13:23:00;2.03;;;0.28;;
9559;SDS011;4818;50.860;4.648;2022-09-27T13:25:52;2.50;;;0.20;;
9559;SDS011;4818;50.860;4.648;2022-09-27T13:30:58;5.22;;;0.30;;
9559;SDS011;4818;50.860;4.648;2022-09-27T13:38:32;6.80;;;0.50;;
9559;SDS011;4818;50.860;4.648;2022-09-27T13:41:17;3.25;;;0.20;;
9559;SDS011;4818;50.860;4.648;2022-09-27T13:46:18;2.80;;;0.55;;
9559;SDS011;4818;50.860;4.648;2022-09-27T13:53:54;2.35;;;0.20;;
9559;SDS011;4818;50.860;4.648;2022-09-27T14:01:50;5.72;;;0.22;;
9559;SDS011;4818;50.860;4.648;2022-09-27T14:06:48;3.88;;;0.20;;
9559;SDS011;4818;50.860;4.648;2022-09-27T14:12:04;2.60;;;0.20;;
9559;SDS011;4818;50.860;4.648;2022-09-27T14:14:41;1.25;;;0.20;;
9559;SDS011;4818;50.860;4.648;2022-09-27T14:17:14;3.75;;;0.40;;
9559;SDS011;4818;50.860;4.648;2022-09-27T14:19:41;2.10;;;0.20;;
9559;SDS011;4818;50.860;4.648;2022-09-27T14:22:15;1.42;;;0.20;;
9559;SDS011;4818;50.860;4.648;2022-09-27T14:24:43;3.65;;;0.30;;
9559;SDS011;4818;50.860;4.648;2022-09-27T14:29:54;3.05;;;0.25;;
9559;SDS011;4818;50.860;4.648;2022-09-27T14:37:59;3.15;;;0.40;;
9559;SDS011;4818;50.860;4.648;2022-09-27T14:40:33;5.50;;;0.30;;
9559;SDS011;4818;50.860;4.648;2022-09-27T14:43:01;7.88;;;0.30;;
9559;SDS011;4818;50.860;4.648;2022-09-27T14:45:37;2.90;;;0.63;;
9559;SDS011;4818;50.860;4.648;2022-09-27T14:50:51;4.88;;;0.43;;
9559;SDS011;4818;50.860;4.648;2022-09-27T14:53:21;4.22;;;0.40;;
9559;SDS011;4818;50.860;4.648;2022-09-27T14:55:48;5.05;;;0.28;;
9559;SDS011;4818;50.860;4.648;2022-09-27T14:58:14;4.18;;;0.40;;
9559;SDS011;4818;50.860;4.648;2022-09-27T15:00:44;5.68;;;0.30;;
9559;SDS011;4818;50.860;4.648;2022-09-27T15:03:11;2.17;;;0.55;;
9559;SDS011;4818;50.860;4.648;2022-09-27T15:05:43;5.97;;;0.40;;
9559;SDS011;4818;50.860;4.648;2022-09-27T15:08:09;6.93;;;0.88;;
9559;SDS011;4818;50.860;4.648;2022-09-27T15:10:36;6.28;;;0.50;;
9559;SDS011;4818;50.860;4.648;2022-09-27T15:13:03;5.28;;;0.40;;
9559;SDS011;4818;50.860;4.648;2022-09-27T15:15:32;6.72;;;0.60;;
9559;SDS011;4818;50.860;4.648;2022-09-27T15:17:59;3.58;;;0.40;;
9559;SDS011;4818;50.860;4.648;2022-09-27T15:20:30;5.85;;;0.85;;
9559;SDS011;4818;50.860;4.648;2022-09-27T15:22:57;3.78;;;0.40;;
9559;SDS011;4818;50.860;4.648;2022-09-27T15:25:30;7.80;;;0.40;;
9559;SDS011;4818;50.860;4.648;2022-09-27T15:28:05;6.32;;;0.70;;
9559;SDS011;4818;50.860;4.648;2022-09-27T15:33:05;7.95;;;0.52;;
9559;SDS011;4818;50.860;4.648;2022-09-27T15:35:33;4.55;;;0.43;;
9559;SDS011;4818;50.860;4.648;2022-09-27T15:38:09;7.90;;;0.57;;
9559;SDS011;4818;50.860;4.648;2022-09-27T15:43:12;6.55;;;0.80;;
9559;SDS011;4818;50.860;4.648;2022-09-27T15:45:53;4.85;;;0.40;;
9559;SDS011;4818;50.860;4.648;2022-09-27T15:48:20;4.68;;;0.40;;
9559;SDS011;4818;50.860;4.648;2022-09-27T15:50:47;3.25;;;0.50;;
9559;SDS011;4818;50.860;4.648;2022-09-27T15:53:58;4.30;;;0.40;;
9559;SDS011;4818;50.860;4.648;2022-09-27T15:56:12;5.28;;;0.63;;
9559;SDS011;4818;50.860;4.648;2022-09-27T15:58:41;11.57;;;0.45;;
9559;SDS011;4818;50.860;4.648;2022-09-27T16:01:13;3.80;;;0.40;;
9559;SDS011;4818;50.860;4.648;2022-09-27T16:03:40;2.15;;;0.22;;
9559;SDS011;4818;50.860;4.648;2022-09-27T16:06:09;3.03;;;0.47;;
9559;SDS011;4818;50.860;4.648;2022-09-27T16:08:44;3.58;;;0.95;;
9559;SDS011;4818;50.860;4.648;2022-09-27T16:11:13;3.35;;;0.22;;
9559;SDS011;4818;50.860;4.648;2022-09-27T16:13:48;1.10;;;0.10;;
9559;SDS011;4818;50.860;4.648;2022-09-27T16:16:17;3.95;;;0.77;;
9559;SDS011;4818;50.860;4.648;2022-09-27T16:18:44;2.70;;;0.20;;
9559;SDS011;4818;50.860;4.648;2022-09-27T16:21:11;3.30;;;0.30;;
9559;SDS011;4818;50.860;4.648;2022-09-27T16:23:37;4.40;;;0.20;;
9559;SDS011;4818;50.860;4.648;2022-09-27T16:26:07;1.10;;;0.10;;
9559;SDS011;4818;50.860;4.648;2022-09-27T16:28:41;5.25;;;0.52;;
9559;SDS011;4818;50.860;4.648;2022-09-27T16:31:08;1.25;;;0.20;;
9559;SDS011;4818;50.860;4.648;2022-09-27T16:33:35;4.95;;;0.25;;
9559;SDS011;4818;50.860;4.648;2022-09-27T16:36:04;3.47;;;0.25;;
9559;SDS011;4818;50.860;4.648;2022-09-27T16:38:32;2.00;;;0.20;;
9559;SDS011;4818;50.860;4.648;2022-09-27T16:40:58;5.97;;;0.28;;
9559;SDS011;4818;50.860;4.648;2022-09-27T16:43:26;4.95;;;0.40;;
9559;SDS011;4818;50.860;4.648;2022-09-27T16:45:53;3.03;;;0.28;;
9559;SDS011;4818;50.860;4.648;2022-09-27T16:50:49;3.42;;;0.10;;
9559;SDS011;4818;50.860;4.648;2022-09-27T16:53:34;1.98;;;0.45;;
9559;SDS011;4818;50.860;4.648;2022-09-27T16:56:00;2.45;;;0.20;;
9559;SDS011;4818;50.860;4.648;2022-09-27T16:58:27;3.10;;;0.20;;
9559;SDS011;4818;50.860;4.648;2022-09-27T17:00:56;8.00;;;0.55;;
9559;SDS011;4818;50.860;4.648;2022-09-27T17:03:22;3.92;;;0.30;;
9559;SDS011;4818;50.860;4.648;2022-09-27T17:05:48;1.95;;;0.20;;
9559;SDS011;4818;50.860;4.648;2022-09-27T17:08:14;3.25;;;0.20;;
9559;SDS011;4818;50.860;4.648;2022-09-27T17:10:44;2.67;;;0.30;;
9559;SDS011;4818;50.860;4.648;2022-09-27T17:13:10;1.05;;;0.20;;
9559;SDS011;4818;50.860;4.648;2022-09-27T17:15:37;3.33;;;0.52;;
9559;SDS011;4818;50.860;4.648;2022-09-27T17:18:03;6.30;;;0.32;;
9559;SDS011;4818;50.860;4.648;2022-09-27T17:20:29;2.47;;;0.30;;
9559;SDS011;4818;50.860;4.648;2022-09-27T17:22:56;8.38;;;0.75;;
9559;SDS011;4818;50.860;4.648;2022-09-27T17:25:23;5.78;;;0.63;;
9559;SDS011;4818;50.860;4.648;2022-09-27T17:27:49;2.78;;;0.40;;
9559;SDS011;4818;50.860;4.648;2022-09-27T17:30:15;2.78;;;0.50;;
9559;SDS011;4818;50.860;4.648;2022-09-27T17:32:41;2.60;;;0.50;;
9559;SDS011;4818;50.860;4.648;2022-09-27T17:35:08;5.82;;;0.82;;
9559;SDS011;4818;50.860;4.648;2022-09-27T17:37:34;3.38;;;0.60;;
9559;SDS011;4818;50.860;4.648;2022-09-27T17:40:01;2.28;;;0.52;;
9559;SDS011;4818;50.860;4.648;2022-09-27T17:42:28;5.22;;;0.50;;
9559;SDS011;4818;50.860;4.648;2022-09-27T17:44:54;2.03;;;0.30;;
9559;SDS011;4818;50.860;4.648;2022-09-27T17:47:20;4.43;;;0.57;;
9559;SDS011;4818;50.860;4.648;2022-09-27T17:50:05;4.93;;;0.60;;
9559;SDS011;4818;50.860;4.648;2022-09-27T17:52:53;3.80;;;0.50;;
9559;SDS011;4818;50.860;4.648;2022-09-27T17:55:19;3.65;;;0.88;;
9559;SDS011;4818;50.860;4.648;2022-09-27T17:57:46;4.18;;;0.70;;
9559;SDS011;4818;50.860;4.648;2022-09-27T18:00:13;7.22;;;1.77;;
9559;SDS011;4818;50.860;4.648;2022-09-27T18:02:39;7.72;;;1.20;;
9559;SDS011;4818;50.860;4.648;2022-09-27T18:05:05;8.10;;;0.73;;
9559;SDS011;4818;50.860;4.648;2022-09-27T18:07:32;3.88;;;0.80;;
9559;SDS011;4818;50.860;4.648;2022-09-27T18:09:58;6.30;;;0.75;;
9559;SDS011;4818;50.860;4.648;2022-09-27T18:12:27;2.33;;;0.50;;
9559;SDS011;4818;50.860;4.648;2022-09-27T18:14:59;4.28;;;0.40;;
9559;SDS011;4818;50.860;4.648;2022-09-27T18:17:25;1.55;;;0.40;;
9559;SDS011;4818;50.860;4.648;2022-09-27T18:19:52;3.45;;;0.52;;
9559;SDS011;4818;50.860;4.648;2022-09-27T18:22:21;3.08;;;0.40;;
9559;SDS011;4818;50.860;4.648;2022-09-27T18:24:49;3.63;;;0.60;;
9559;SDS011;4818;50.860;4.648;2022-09-27T18:27:16;3.88;;;0.40;;
9559;SDS011;4818;50.860;4.648;2022-09-27T18:29:44;3.90;;;0.55;;
9559;SDS011;4818;50.860;4.648;2022-09-27T18:32:10;3.28;;;0.40;;
9559;SDS011;4818;50.860;4.648;2022-09-27T18:34:36;2.05;;;0.35;;
9559;SDS011;4818;50.860;4.648;2022-09-27T18:37:04;4.78;;;0.30;;
9559;SDS011;4818;50.860;4.648;2022-09-27T18:39:30;2.17;;;0.55;;